地図

経路データ

SID SEASON NUMBER BASIN SUBBASIN NAME ISO_TIME NATURE LAT LON WMO_WIND WMO_PRES WMO_AGENCY TRACK_TYPE DIST2LAND LANDFALL IFLAG USA_AGENCY USA_ATCF_ID USA_LAT USA_LON USA_RECORD USA_STATUS USA_WIND USA_PRES USA_SSHS USA_R34_NE USA_R34_SE USA_R34_SW USA_R34_NW USA_R50_NE USA_R50_SE USA_R50_SW USA_R50_NW USA_R64_NE USA_R64_SE USA_R64_SW USA_R64_NW USA_POCI USA_ROCI USA_RMW USA_EYE TOKYO_LAT TOKYO_LON TOKYO_GRADE TOKYO_WIND TOKYO_PRES TOKYO_R50_DIR TOKYO_R50_LONG TOKYO_R50_SHORT TOKYO_R30_DIR TOKYO_R30_LONG TOKYO_R30_SHORT TOKYO_LAND CMA_LAT CMA_LON CMA_CAT CMA_WIND CMA_PRES HKO_LAT HKO_LON HKO_CAT HKO_WIND HKO_PRES NEWDELHI_LAT NEWDELHI_LON NEWDELHI_GRADE NEWDELHI_WIND NEWDELHI_PRES NEWDELHI_CI NEWDELHI_DP NEWDELHI_POCI REUNION_LAT REUNION_LON REUNION_TYPE REUNION_WIND REUNION_PRES REUNION_TNUM REUNION_CI REUNION_RMW REUNION_R34_NE REUNION_R34_SE REUNION_R34_SW REUNION_R34_NW REUNION_R50_NE REUNION_R50_SE REUNION_R50_SW REUNION_R50_NW REUNION_R64_NE REUNION_R64_SE REUNION_R64_SW REUNION_R64_NW BOM_LAT BOM_LON BOM_TYPE BOM_WIND BOM_PRES BOM_TNUM BOM_CI BOM_RMW BOM_R34_NE BOM_R34_SE BOM_R34_SW BOM_R34_NW BOM_R50_NE BOM_R50_SE BOM_R50_SW BOM_R50_NW BOM_R64_NE BOM_R64_SE BOM_R64_SW BOM_R64_NW BOM_ROCI BOM_POCI BOM_EYE BOM_POS_METHOD BOM_PRES_METHOD NADI_LAT NADI_LON NADI_CAT NADI_WIND NADI_PRES WELLINGTON_LAT WELLINGTON_LON WELLINGTON_WIND WELLINGTON_PRES DS824_LAT DS824_LON DS824_STAGE DS824_WIND DS824_PRES TD9636_LAT TD9636_LON TD9636_STAGE TD9636_WIND TD9636_PRES TD9635_LAT TD9635_LON TD9635_WIND TD9635_PRES TD9635_ROCI NEUMANN_LAT NEUMANN_LON NEUMANN_CLASS NEUMANN_WIND NEUMANN_PRES MLC_LAT MLC_LON MLC_CLASS MLC_WIND MLC_PRES USA_GUST BOM_GUST BOM_GUST_PER REUNION_GUST REUNION_GUST_PER USA_SEAHGT USA_SEARAD_NE USA_SEARAD_SE USA_SEARAD_SW USA_SEARAD_NW STORM_SPEED STORM_DIR
1938307N10133 1938 61 WP MM NOT_NAMED 1938-11-03 10:00:00 NR 9.50000 132.800 main 711 690 __________O___ -1 9.50000 132.800 7 7 269
1938307N10133 1938 61 WP MM NOT_NAMED 1938-11-03 12:00:00 NR 9.49476 132.575 main 690 648 __________P___ -1 9.49476 132.575 7 7 269
1938307N10133 1938 61 WP MM NOT_NAMED 1938-11-03 15:00:00 NR 9.48873 132.235 main 648 617 __________P___ -1 9.48873 132.235 7 7 269
1938307N10133 1938 61 WP MM NOT_NAMED 1938-11-03 18:00:00 NR 9.48779 131.886 main 617 575 __________P___ -1 9.48779 131.886 7 7 271
1938307N10133 1938 61 WP MM NOT_NAMED 1938-11-03 21:00:00 NR 9.49515 131.524 main 575 565 __________P___ -1 9.49515 131.524 7 7 271
1938307N10133 1938 61 WP MM NOT_NAMED 1938-11-03 22:00:00 NR 9.50000 131.400 main 565 533 __________O___ -1 9.50000 131.400 7 8 273
1938307N10133 1938 61 WP MM NOT_NAMED 1938-11-04 00:00:00 NR 9.51354 131.145 main 533 489 __________P___ -1 9.51354 131.145 7 8 274
1938307N10133 1938 61 WP MM NOT_NAMED 1938-11-04 03:00:00 NR 9.54024 130.749 main 489 448 __________P___ -1 9.54024 130.749 7 8 274
1938307N10133 1938 61 WP MM NOT_NAMED 1938-11-04 06:00:00 NR 9.56905 130.344 main 448 405 __________P___ -1 9.56905 130.344 7 8 274
1938307N10133 1938 61 WP MM NOT_NAMED 1938-11-04 09:00:00 NR 9.59375 129.936 main 405 394 __________P___ -1 9.59375 129.936 7 8 273
1938307N10133 1938 61 WP MM NOT_NAMED 1938-11-04 10:00:00 NR 9.60000 129.800 main 394 373 __________O___ -1 9.60000 129.800 7 6 268
1938307N10133 1938 61 WP MM NOT_NAMED 1938-11-04 12:00:00 NR 9.58353 129.617 main 373 341 __________P___ -1 9.58353 129.617 7 5 264
1938307N10133 1938 61 WP MM NOT_NAMED 1938-11-04 15:00:00 NR 9.55231 129.343 main 341 306 __________P___ -1 9.55231 129.343 7 6 266
1938307N10133 1938 61 WP MM NOT_NAMED 1938-11-04 18:00:00 NR 9.53929 128.984 main 306 245 __________P___ -1 9.53929 128.984 7 9 271
1938307N10133 1938 61 WP MM NOT_NAMED 1938-11-04 21:00:00 NR 9.57332 128.440 main 245 224 __________P___ -1 9.57332 128.440 7 12 274
1938307N10133 1938 61 WP MM NOT_NAMED 1938-11-04 22:00:00 NR 9.60000 128.200 main 224 163 __________O___ -1 9.60000 128.200 3 17 278
1938307N10133 1938 61 WP MM NOT_NAMED 1938-11-05 00:00:00 NR 9.69707 127.568 main 163 62 __________P___ -1 9.69707 127.568 3 21 279
1938307N10133 1938 61 WP MM NOT_NAMED 1938-11-05 03:00:00 NR 9.89251 126.416 main 62 10 __________P___ -1 9.89251 126.416 3 24 280
1938307N10133 1938 61 WP MM NOT_NAMED 1938-11-05 06:00:00 NR 10.1163 125.127 main 10 0 __________P___ -1 10.1163 125.127 3 26 280
1938307N10133 1938 61 WP MM NOT_NAMED 1938-11-05 09:00:00 NR 10.3342 123.819 main 0 0 __________P___ -1 10.3342 123.819 3 26 279
1938307N10133 1938 61 WP MM NOT_NAMED 1938-11-05 10:00:00 NR 10.4000 123.400 main 0 0 __________O___ -1 10.4000 123.400 4 24 277
1938307N10133 1938 61 WP MM NOT_NAMED 1938-11-05 12:00:00 NR 10.4762 122.634 main 21 0 __________P___ -1 10.4762 122.634 4 22 275
1938307N10133 1938 61 WP MM NOT_NAMED 1938-11-05 15:00:00 NR 10.5719 121.522 main 49 49 __________P___ -1 10.5719 121.522 4 21 275
1938307N10133 1938 61 WP MM NOT_NAMED 1938-11-05 18:00:00 NR 10.6780 120.472 main 90 0 __________P___ -1 10.6780 120.472 4 20 277
1938307N10133 1938 61 WP MM NOT_NAMED 1938-11-05 21:00:00 NR 10.8317 119.502 main 0 0 __________P___ -1 10.8317 119.502 4 19 280
1938307N10133 1938 61 WP MM NOT_NAMED 1938-11-05 22:00:00 NR 10.9000 119.200 main 10 10 __________O___ -1 10.9000 119.200 4 18 284
1938307N10133 1938 61 WP MM NOT_NAMED 1938-11-06 00:00:00 NR 11.0443 118.608 main 77 79 __________P___ -1 11.0443 118.608 4 17 287
1938307N10133 1938 61 WP MM NOT_NAMED 1938-11-06 03:00:00 NR 11.3177 117.794 main 169 169 __________P___ -1 11.3177 117.794 4 16 293
1938307N10133 1938 61 WP MM NOT_NAMED 1938-11-06 06:00:00 NR 11.6729 117.063 main 256 266 __________P___ -1 11.6729 117.063 4 16 301
1938307N10133 1938 61 WP MM NOT_NAMED 1938-11-06 09:00:00 NR 12.1251 116.405 main 342 345 __________P___ -1 12.1251 116.405 4 16 307
1938307N10133 1938 61 WP MM NOT_NAMED 1938-11-06 10:00:00 NR 12.3000 116.200 main 369 369 __________O___ -1 12.3000 116.200 4 18 314
1938307N10133 1938 61 WP MM NOT_NAMED 1938-11-06 12:00:00 NR 12.7493 115.753 main 426 440 __________P___ -1 12.7493 115.753 4 19 320
1938307N10133 1938 61 WP MM NOT_NAMED 1938-11-06 15:00:00 NR 13.5135 115.137 main 533 539 __________P___ -1 13.5135 115.137 4 19 324
1938307N10133 1938 61 WP MM NOT_NAMED 1938-11-06 18:00:00 NR 14.2801 114.612 main 573 539 __________P___ -1 14.2801 114.612 4 17 327
1938307N10133 1938 61 WP MM NOT_NAMED 1938-11-06 21:00:00 NR 14.9299 114.204 main 539 531 __________P___ -1 14.9299 114.204 4 14 329
1938307N10133 1938 61 WP MM NOT_NAMED 1938-11-06 22:00:00 NR 15.1000 114.100 main 534 519 __________O___ -1 15.1000 114.100 4 9 325
1938307N10133 1938 61 WP MM NOT_NAMED 1938-11-07 00:00:00 NR 15.2951 113.943 main 519 510 __________P___ -1 15.2951 113.943 4 5 321
1938307N10133 1938 61 WP MM NOT_NAMED 1938-11-07 03:00:00 NR 15.4370 113.823 main 510 508 __________P___ -1 15.4370 113.823 4 2 321
1938307N10133 1938 61 WP MM NOT_NAMED 1938-11-07 06:00:00 NR 15.4726 113.793 main 508 508 __________P___ -1 15.4726 113.793 4 1 331
1938307N10133 1938 61 WP MM NOT_NAMED 1938-11-07 09:00:00 NR 15.4860 113.799 main 508 508 __________P___ -1 15.4860 113.799 4 0 0
1938307N10133 1938 61 WP MM NOT_NAMED 1938-11-07 10:00:00 NR 15.5000 113.800 main 508 500 __________O___ -1 15.5000 113.800 4 3 345
1938307N10133 1938 61 WP MM NOT_NAMED 1938-11-07 12:00:00 NR 15.6126 113.761 main 500 477 __________P___ -1 15.6126 113.761 4 4 343
1938307N10133 1938 61 WP MM NOT_NAMED 1938-11-07 15:00:00 NR 15.8008 113.709 main 477 462 __________P___ -1 15.8008 113.709 4 4 345
1938307N10133 1938 61 WP MM NOT_NAMED 1938-11-07 18:00:00 NR 15.9899 113.661 main 462 439 __________P___ -1 15.9899 113.661 4 4 346
1938307N10133 1938 61 WP MM NOT_NAMED 1938-11-07 21:00:00 NR 16.1547 113.615 main 439 439 __________P___ -1 16.1547 113.615 4 3 346
1938307N10133 1938 61 WP MM NOT_NAMED 1938-11-07 22:00:00 NR 16.2000 113.600 main 439 431 __________O___ -1 16.2000 113.600 4 2 332
1938307N10133 1938 61 WP MM NOT_NAMED 1938-11-08 00:00:00 NR 16.2593 113.564 main 431 423 __________P___ -1 16.2593 113.564 4 2 322
1938307N10133 1938 61 WP MM NOT_NAMED 1938-11-08 03:00:00 NR 16.3166 113.510 main 423 416 __________P___ -1 16.3166 113.510 4 1 311
1938307N10133 1938 61 WP MM NOT_NAMED 1938-11-08 06:00:00 NR 16.3526 113.459 main 416 408 __________P___ -1 16.3526 113.459 4 1 308
1938307N10133 1938 61 WP MM NOT_NAMED 1938-11-08 09:00:00 NR 16.3861 113.413 main 408 408 __________P___ -1 16.3861 113.413 4 1 314
1938307N10133 1938 61 WP MM NOT_NAMED 1938-11-08 10:00:00 NR 16.4000 113.400 main 408 408 __________O___ -1 16.4000 113.400 4 1 0
1938307N10133 1938 61 WP MM NOT_NAMED 1938-11-08 12:00:00 NR 16.4311 113.391 main 408 400 __________P___ -1 16.4311 113.391 4 1 0
1938307N10133 1938 61 WP MM NOT_NAMED 1938-11-08 15:00:00 NR 16.4839 113.383 main 400 393 __________P___ -1 16.4839 113.383 4 1 352
1938307N10133 1938 61 WP MM NOT_NAMED 1938-11-08 18:00:00 NR 16.5550 113.367 main 393 378 __________P___ -1 16.5550 113.367 4 2 343
1938307N10133 1938 61 WP MM NOT_NAMED 1938-11-08 21:00:00 NR 16.6570 113.324 main 378 378 __________P___ -1 16.6570 113.324 4 2 336
1938307N10133 1938 61 WP MM NOT_NAMED 1938-11-08 22:00:00 NR 16.7000 113.300 main 378 363 __________O___ -1 16.7000 113.300 4 4 329
1938307N10133 1938 61 WP MM NOT_NAMED 1938-11-09 00:00:00 NR 16.8127 113.223 main 363 340 __________P___ -1 16.8127 113.223 4 5 326
1938307N10133 1938 61 WP MM NOT_NAMED 1938-11-09 03:00:00 NR 17.0135 113.077 main 340 310 __________P___ -1 17.0135 113.077 4 5 324
1938307N10133 1938 61 WP MM NOT_NAMED 1938-11-09 06:00:00 NR 17.2300 112.912 main 310 280 __________P___ -1 17.2300 112.912 4 5 324
1938307N10133 1938 61 WP MM NOT_NAMED 1938-11-09 09:00:00 NR 17.4373 112.750 main 280 274 __________P___ -1 17.4373 112.750 4 5 323
1938307N10133 1938 61 WP MM NOT_NAMED 1938-11-09 10:00:00 NR 17.5000 112.700 main 274 268 __________O___ -1 17.5000 112.700 4 3 330
1938307N10133 1938 61 WP MM NOT_NAMED 1938-11-09 12:00:00 NR 17.5791 112.663 main 268 253 __________P___ -1 17.5791 112.663 4 2 337
1938307N10133 1938 61 WP MM NOT_NAMED 1938-11-09 15:00:00 NR 17.6785 112.622 main 253 238 __________P___ -1 17.6785 112.622 4 2 332
1938307N10133 1938 61 WP MM NOT_NAMED 1938-11-09 18:00:00 NR 17.7855 112.547 main 238 224 __________P___ -1 17.7855 112.547 4 3 318
1938307N10133 1938 61 WP MM NOT_NAMED 1938-11-09 21:00:00 NR 17.9348 112.384 main 224 209 __________P___ -1 17.9348 112.384 4 5 313
1938307N10133 1938 61 WP MM NOT_NAMED 1938-11-09 22:00:00 NR 18.0000 112.300 main 209 181 __________O___ -1 18.0000 112.300 4 8 308
1938307N10133 1938 61 WP MM NOT_NAMED 1938-11-10 00:00:00 NR 18.1767 112.059 main 181 119 __________P___ -1 18.1767 112.059 4 10 306
1938307N10133 1938 61 WP MM NOT_NAMED 1938-11-10 03:00:00 NR 18.4920 111.595 main 119 57 __________P___ -1 18.4920 111.595 4 12 305
1938307N10133 1938 61 WP MM NOT_NAMED 1938-11-10 06:00:00 NR 18.8397 111.055 main 57 0 __________P___ -1 18.8397 111.055 4 13 304
1938307N10133 1938 61 WP MM NOT_NAMED 1938-11-10 09:00:00 NR 19.1887 110.487 main 0 0 __________P___ -1 19.1887 110.487 4 13 303
1938307N10133 1938 61 WP MM NOT_NAMED 1938-11-10 10:00:00 NR 19.3000 110.300 main 0 0 __________O___ -1 19.3000 110.300 4 12 302
1938307N10133 1938 61 WP MM NOT_NAMED 1938-11-10 12:00:00 NR 19.5103 109.939 main 0 0 __________P___ -1 19.5103 109.939 4 12 301
1938307N10133 1938 61 WP MM NOT_NAMED 1938-11-10 15:00:00 NR 19.7994 109.426 main 0 0 __________P___ -1 19.7994 109.426 4 11 300
1938307N10133 1938 61 WP MM NOT_NAMED 1938-11-10 18:00:00 NR 20.0652 108.935 main 53 53 __________P___ -1 20.0652 108.935 4 10 300
1938307N10133 1938 61 WP MM NOT_NAMED 1938-11-10 21:00:00 NR 20.3174 108.458 main 98 103 __________P___ -1 20.3174 108.458 4 10 299
1938307N10133 1938 61 WP MM NOT_NAMED 1938-11-10 22:00:00 NR 20.4000 108.300 main 115 __________O___ -1 20.4000 108.300 4 10 299

デジタル台風データ・検索

IBTrACS Databaseについて

本データベースは、米国NOAAが公開する1842年以降の世界の熱帯低気圧のベストトラックデータアーカイブInternational Best Track Archive for Climate Stewardship (IBTrACS)を、ウェブで閲覧しやすい形式に変換したものです。

最終更新日:2021-10-25